American Falls, ID

9:02 AM MDT on August 22, 2014 (GMT -0600)
RAWS RAFT RIVER ID US | Change Station
CLOSE
Current Station
Personal Weather Station
Location: Malta, ID
Elevation: 4331 ft
Nearby Weather Stations

Elev 4331 ft 42.55 °N, 113.26 °W | Updated 43 minutes ago

Scattered Clouds
Scattered Clouds
56 °F
Feels Like 56 °F
N
9
Wind Variable Wind from ENE
Gusts 15.0 mph

Today
High -- | Low -- °F
--% Chance of Precip.
Yesterday
High -- | Low -- °F
Precip. -- in
6:45 AM 8:22 PM
Waning Crescent, 8% visible
Pressure 29.96 in
Visibility 10.0 miles
Clouds Few 4600 ft
Scattered Clouds 8000 ft
Scattered Clouds 12000 ft
Dew Point 53 °F
Humidity 91%
Rainfall 0.51 in
Snow Depth Not available.
UV 2 out of 12
Pollen 7.10 out of 12
Air Quality Not available.
Flu Activity Not available.
METAR KPIH 221453Z 10009KT 10SM FEW046 SCT080 SCT120 13/12 A3006 RMK AO2 LTG DSNT E-SW RAB20E51 SLP146 P0000 60025 T01330122 58002

More Conditions Fewer Conditions

Pressure 29.96 in
Visibility 10.0 miles
Clouds Few 4600 ft
Scattered Clouds 8000 ft
Scattered Clouds 12000 ft
Dew Point 53 °F
Humidity 91%
Rainfall 0.51 in
Snow Depth Not available.
UV 2 out of 12
Pollen 7.10 out of 12
Air Quality Not available.
Flu Activity Not available.
METAR KPIH 221453Z 10009KT 10SM FEW046 SCT080 SCT120 13/12 A3006 RMK AO2 LTG DSNT E-SW RAB20E51 SLP146 P0000 60025 T01330122 58002

More Conditions Fewer Conditions

10-Day Weather Forecast

Almanac

Astronomy

Aug. 22, 2014 Rise Set
Actual Time 6:45 AM MDT 8:22 PM MDT
Civil Twilight 6:16 AM MDT 8:52 PM MDT
Nautical Twilight 5:39 AM MDT 9:28 PM MDT
Astronomical Twilight 5:01 AM MDT 10:07 PM MDT
Moon 4:10 AM MDT 6:34 PM MDT
Length of Visible Light 14h 36m
Length of Day
13h 36m
Tomorrow will be 2m 41s shorter.
Waning Crescent, 8% of the Moon is Illuminated
Today
Waning Crescent
Aug 25
New
Sep 2
First Quarter
Sep 8
Full
Sep 15
Last Quarter

Today's Extremes

State Highs State Lows

Community

WunderPhotos

Upload Photos

1,746,185 photos uploaded!

WunderBlogs® & News

Nearby

Air Quality

  Air Quality AQ Index Pollutant
Yesterday Good
PM10
Friday Good
PM2.5
Saturday Good
PM2.5

Snow Depth

Station Depth Elevation
Wildhorse Divide 0 in 6490 ft
Oxford Spring 0 in 6740 ft
Sheep Mountain 0 in 6570 ft
Emigrant Summit 0 in 7390 ft
Swede Peak 0 in 7640 ft

Earthquake Activity

City Distance Mag. Time & Date
No recent earthquake activity has been reported nearby.
Minimum magnitude displayed is 2.5.

Coastal Water Temperatures

Place Temperature
No Stations Reporting

Nearby Weather Stations